createdAt,value
2023-01-13T00:01:25.924Z,87.03
2023-01-13T00:03:54.000Z,87.06
2023-01-13T00:06:23.531Z,87.34
2023-01-13T00:08:51.417Z,87.33
2023-01-13T00:11:18.719Z,86.81
2023-01-13T00:13:46.747Z,87.10
2023-01-13T00:16:17.200Z,87.29
2023-01-13T00:18:44.561Z,87.40
2023-01-13T00:21:20.171Z,87.68
2023-01-13T00:23:47.257Z,88.08
2023-01-13T00:26:22.522Z,87.92
2023-01-13T00:28:51.708Z,87.67
2023-01-13T00:31:20.719Z,88.00
2023-01-13T00:33:51.354Z,88.01
2023-01-13T00:36:20.034Z,87.71
2023-01-13T00:38:47.983Z,87.64
2023-01-13T00:41:22.926Z,87.17
2023-01-13T00:43:49.881Z,86.59
2023-01-13T00:46:19.876Z,85.49
2023-01-13T00:48:47.829Z,84.53
2023-01-13T00:51:17.166Z,84.67
2023-01-13T00:53:48.794Z,85.05
2023-01-13T00:56:34.055Z,85.99
2023-01-13T01:01:40.582Z,87.15
2023-01-13T01:04:07.523Z,87.67
2023-01-13T01:06:34.620Z,87.70
2023-01-13T01:09:01.463Z,87.44
2023-01-13T01:11:31.001Z,87.09
2023-01-13T01:14:00.689Z,87.08
2023-01-13T01:16:29.858Z,87.12
2023-01-13T01:18:57.238Z,86.41
2023-01-13T01:21:25.956Z,86.86
2023-01-13T01:23:53.111Z,86.16
2023-01-13T01:26:22.145Z,85.05
2023-01-13T01:28:49.130Z,84.23
2023-01-13T01:31:23.439Z,83.26
2023-01-13T01:33:50.809Z,82.43
2023-01-13T01:36:19.581Z,81.72
2023-01-13T01:38:47.579Z,81.57
2023-01-13T01:41:23.620Z,78.55
2023-01-13T01:44:04.040Z,78.58
2023-01-13T01:46:38.612Z,77.19
2023-01-13T01:49:14.379Z,76.55
2023-01-13T01:52:03.409Z,75.49
2023-01-13T01:54:54.186Z,74.65
2023-01-13T01:57:30.925Z,74.46
2023-01-13T01:59:59.476Z,75.89
2023-01-13T02:02:26.401Z,77.07
2023-01-13T02:04:54.886Z,78.93
2023-01-13T02:07:25.943Z,79.82
2023-01-13T02:09:55.314Z,78.98
2023-01-13T02:12:33.712Z,79.32
2023-01-13T02:15:09.078Z,78.55
2023-01-13T02:17:46.264Z,78.41
2023-01-13T02:20:52.457Z,78.08
2023-01-13T02:24:22.345Z,77.80
2023-01-13T03:21:59.035Z,80.41
2023-01-13T03:24:25.588Z,79.94
2023-01-13T03:27:00.649Z,79.82
2023-01-13T03:29:38.198Z,79.40
2023-01-13T03:32:31.107Z,79.18
2023-01-13T03:35:24.501Z,78.92
2023-01-13T03:38:00.046Z,79.40
2023-01-13T03:40:32.269Z,78.73
2023-01-13T03:43:38.758Z,79.26
2023-01-13T03:46:11.274Z,78.72
2023-01-13T03:48:42.644Z,78.43
2023-01-13T03:51:17.643Z,79.03
2023-01-13T03:53:52.904Z,78.10
2023-01-13T03:56:26.904Z,78.41
2023-01-13T03:58:54.421Z,78.60
2023-01-13T04:01:35.062Z,78.40
2023-01-13T04:04:08.287Z,77.60
2023-01-13T04:06:44.365Z,77.60
2023-01-13T04:09:23.931Z,77.91
2023-01-13T04:11:55.779Z,78.16
2023-01-13T04:14:25.347Z,77.80
2023-01-13T04:16:52.797Z,78.41
2023-01-13T04:19:19.692Z,78.05
2023-01-13T04:21:46.213Z,78.04
2023-01-13T04:24:12.827Z,78.12
2023-01-13T04:26:39.313Z,77.72
2023-01-13T04:29:05.889Z,77.90
2023-01-13T04:31:32.375Z,78.02
2023-01-13T04:33:58.978Z,78.48
2023-01-13T04:36:27.613Z,78.49
2023-01-13T04:38:57.281Z,78.93
2023-01-13T04:41:23.837Z,79.14
2023-01-13T04:43:50.623Z,78.18
2023-01-13T04:46:17.235Z,78.41
2023-01-13T04:48:43.835Z,78.45
2023-01-13T04:51:10.523Z,78.48
2023-01-13T04:53:37.359Z,77.77
2023-01-13T04:56:04.039Z,78.45
2023-01-13T04:58:30.582Z,78.84
2023-01-13T05:00:58.202Z,78.73
2023-01-13T05:03:26.731Z,78.28
2023-01-13T05:05:53.303Z,77.74
2023-01-13T05:08:20.070Z,78.20
2023-01-13T05:10:46.773Z,78.13
2023-01-13T05:13:39.394Z,77.65
2023-01-13T05:16:24.967Z,77.79
2023-01-13T05:18:51.574Z,77.94
2023-01-13T05:21:36.846Z,78.14
2023-01-13T05:24:22.610Z,77.85
2023-01-13T05:26:49.234Z,78.02
2023-01-13T05:29:15.827Z,77.30
2023-01-13T05:31:42.299Z,78.04
2023-01-13T05:34:09.237Z,77.72
2023-01-13T05:36:35.847Z,77.78
2023-01-13T05:39:02.541Z,77.65
2023-01-13T05:41:47.871Z,77.49
2023-01-13T05:44:14.350Z,77.34
2023-01-13T05:46:42.041Z,77.16
2023-01-13T05:49:08.642Z,77.59
2023-01-13T05:51:35.293Z,77.70
2023-01-13T05:54:01.822Z,77.79
2023-01-13T05:56:28.312Z,77.67
2023-01-13T05:58:54.825Z,78.10
2023-01-13T06:01:21.414Z,77.38
2023-01-13T06:03:47.900Z,77.10
2023-01-13T06:06:14.420Z,77.18
2023-01-13T06:08:40.914Z,77.30
2023-01-13T06:11:07.826Z,77.17
2023-01-13T06:13:34.642Z,77.23
2023-01-13T06:16:04.406Z,77.14
2023-01-13T06:18:31.058Z,77.19
2023-01-13T06:20:57.535Z,76.82
2023-01-13T06:23:25.562Z,77.13
2023-01-13T06:26:13.956Z,76.92
2023-01-13T06:28:40.679Z,76.72
2023-01-13T06:31:09.154Z,76.25
2023-01-13T06:33:40.478Z,76.73
2023-01-13T06:36:13.871Z,76.67
2023-01-13T06:38:47.740Z,76.55
2023-01-13T06:41:14.432Z,76.47
2023-01-13T06:43:40.986Z,76.57
2023-01-13T06:46:07.730Z,76.24
2023-01-13T06:48:35.551Z,76.51
2023-01-13T06:51:02.644Z,76.78
2023-01-13T06:53:30.282Z,76.84
2023-01-13T06:55:56.876Z,76.81
2023-01-13T06:58:23.576Z,77.05
2023-01-13T07:00:51.660Z,76.78
2023-01-13T07:03:19.141Z,76.99
2023-01-13T07:05:54.962Z,76.33
2023-01-13T07:08:23.156Z,76.08
2023-01-13T07:10:53.197Z,76.51
2023-01-13T07:13:38.644Z,76.68
2023-01-13T07:16:08.175Z,76.62
2023-01-13T07:18:35.694Z,77.07
2023-01-13T07:21:10.632Z,76.66
2023-01-13T07:23:41.157Z,76.50
2023-01-13T07:26:09.419Z,75.83
2023-01-13T07:28:36.664Z,75.78
2023-01-13T07:33:39.628Z,75.95
2023-01-13T07:36:06.757Z,75.72
2023-01-13T07:38:33.830Z,75.76
2023-01-13T07:41:24.255Z,76.19
2023-01-13T07:43:51.957Z,76.76
2023-01-13T07:46:19.260Z,76.92
2023-01-13T07:48:48.057Z,76.65
2023-01-13T07:51:14.852Z,76.81
2023-01-13T07:56:26.167Z,76.49
2023-01-13T07:58:53.314Z,76.61
2023-01-13T08:01:20.283Z,76.85
2023-01-13T08:03:47.464Z,77.07
2023-01-13T08:06:14.703Z,78.04
2023-01-13T08:08:41.556Z,78.00
2023-01-13T08:11:10.342Z,78.25
2023-01-13T08:13:38.492Z,77.67
2023-01-13T08:16:08.137Z,77.09
2023-01-13T08:18:35.459Z,76.46
2023-01-13T08:21:16.902Z,76.36
2023-01-13T08:23:45.332Z,76.20
2023-01-13T08:26:17.429Z,76.44
2023-01-13T08:28:45.081Z,76.22
2023-01-13T08:31:18.392Z,76.34
2023-01-13T08:33:44.964Z,76.31
2023-01-13T08:36:12.450Z,76.69
2023-01-13T08:38:39.936Z,76.98
2023-01-13T08:41:16.535Z,76.82
2023-01-13T08:43:43.029Z,76.43
2023-01-13T08:46:11.549Z,75.91
2023-01-13T08:48:38.341Z,76.41
2023-01-13T08:51:07.351Z,76.85
2023-01-13T08:53:33.924Z,76.98
2023-01-13T08:56:02.769Z,76.58
2023-01-13T08:58:30.734Z,76.53
2023-01-13T09:00:57.419Z,75.59
2023-01-13T09:03:24.264Z,75.73
2023-01-13T09:05:53.323Z,75.98
2023-01-13T09:08:20.398Z,76.28
2023-01-13T09:10:46.931Z,75.95
2023-01-13T09:13:14.048Z,76.17
2023-01-13T09:15:46.806Z,76.15
2023-01-13T09:18:13.822Z,75.46
2023-01-13T09:20:40.420Z,75.61
2023-01-13T09:23:10.285Z,75.49
2023-01-13T09:25:37.968Z,75.28
2023-01-13T09:28:08.858Z,75.49
2023-01-13T09:30:36.264Z,74.98
2023-01-13T09:33:21.366Z,74.47
2023-01-13T09:35:47.905Z,74.49
2023-01-13T09:38:14.423Z,74.21
2023-01-13T09:40:43.960Z,74.16
2023-01-13T09:43:39.740Z,74.07
2023-01-13T09:46:35.954Z,73.90
2023-01-13T09:49:03.966Z,73.82
2023-01-13T09:51:33.483Z,73.37
2023-01-13T09:54:25.963Z,73.55
2023-01-13T09:56:53.185Z,73.35
2023-01-13T09:59:20.923Z,73.20
2023-01-13T10:02:10.350Z,73.00
2023-01-13T10:04:36.922Z,73.20
2023-01-13T10:07:06.278Z,72.69
2023-01-13T10:09:49.786Z,72.55
2023-01-13T10:12:42.978Z,72.77
2023-01-13T10:15:25.983Z,72.88
2023-01-13T10:18:04.194Z,72.30
2023-01-13T10:20:59.352Z,72.15
2023-01-13T10:23:39.973Z,72.21
2023-01-13T10:26:25.358Z,72.65
2023-01-13T10:28:53.856Z,72.83
2023-01-13T10:31:22.190Z,72.80
2023-01-13T10:33:49.630Z,72.82
2023-01-13T10:36:21.492Z,72.66
2023-01-13T10:38:51.234Z,72.80
2023-01-13T10:41:19.841Z,72.32
2023-01-13T10:43:52.443Z,72.39
2023-01-13T10:46:21.613Z,72.39
2023-01-13T10:48:58.597Z,72.29
2023-01-13T10:51:25.133Z,71.87
2023-01-13T10:54:03.184Z,72.16
2023-01-13T10:56:35.176Z,72.38
2023-01-13T10:59:14.188Z,72.46
2023-01-13T11:01:56.133Z,72.35
2023-01-13T11:04:32.467Z,72.20
2023-01-13T11:06:59.839Z,72.09
2023-01-13T11:09:30.078Z,72.21
2023-01-13T11:11:57.047Z,72.10
2023-01-13T11:14:42.693Z,71.58
2023-01-13T11:17:23.743Z,71.30
2023-01-13T11:20:00.438Z,70.93
2023-01-13T11:22:39.606Z,70.51
2023-01-13T11:25:13.997Z,69.96
2023-01-13T11:28:17.854Z,69.85
2023-01-13T11:30:50.712Z,69.56
2023-01-13T11:33:29.625Z,69.53
2023-01-13T11:36:13.488Z,69.75
2023-01-13T11:38:53.189Z,69.77
2023-01-13T11:42:13.762Z,70.16
2023-01-13T11:44:51.141Z,70.07
2023-01-13T11:47:21.845Z,70.04
2023-01-13T11:49:48.850Z,70.05
2023-01-13T11:52:54.697Z,69.95
2023-01-13T11:55:40.158Z,69.91
2023-01-13T11:58:12.739Z,69.86
2023-01-13T12:01:04.673Z,69.82
2023-01-13T12:03:44.372Z,70.15
2023-01-13T12:06:27.903Z,70.11
2023-01-13T12:09:21.865Z,70.07
2023-01-13T12:12:27.716Z,70.29
2023-01-13T12:15:06.489Z,70.58
2023-01-13T12:17:54.705Z,70.39
2023-01-13T12:20:39.651Z,70.25
2023-01-13T12:23:15.717Z,70.18
2023-01-13T12:25:47.114Z,69.93
2023-01-13T12:28:23.417Z,69.89
2023-01-13T12:30:56.273Z,69.96
2023-01-13T12:33:51.127Z,70.13
2023-01-13T12:36:29.790Z,70.29
2023-01-13T12:39:20.633Z,70.73
2023-01-13T12:42:12.926Z,71.32
2023-01-13T12:45:19.757Z,71.43
2023-01-13T12:47:47.231Z,71.78
2023-01-13T12:50:26.167Z,72.12
2023-01-13T12:53:04.769Z,72.36
2023-01-13T12:55:36.451Z,73.35
2023-01-13T12:58:06.040Z,74.36
2023-01-13T13:00:41.792Z,75.33
2023-01-13T13:03:11.136Z,76.57
2023-01-13T13:05:55.939Z,77.82
2023-01-13T13:08:47.292Z,78.84
2023-01-13T13:11:32.754Z,79.93
2023-01-13T13:14:00.775Z,80.05
2023-01-13T13:16:28.131Z,80.06
2023-01-13T13:19:25.269Z,79.88
2023-01-13T13:22:18.131Z,80.13
2023-01-13T13:24:50.952Z,80.10
2023-01-13T13:27:28.119Z,80.13
2023-01-13T13:30:05.580Z,79.88
2023-01-13T13:32:41.276Z,80.17
2023-01-13T13:35:32.519Z,79.90
2023-01-13T13:38:45.686Z,80.03
2023-01-13T13:41:37.104Z,79.99
2023-01-13T13:44:31.267Z,80.20
2023-01-13T13:47:02.202Z,80.12
2023-01-13T13:49:49.666Z,80.17
2023-01-13T13:52:21.772Z,80.58
2023-01-13T13:54:52.474Z,81.17
2023-01-13T13:57:48.206Z,81.91
2023-01-13T14:00:15.425Z,82.59
2023-01-13T14:02:49.848Z,82.77
2023-01-13T14:05:22.991Z,82.95
2023-01-13T14:08:10.919Z,82.55
2023-01-13T14:10:42.192Z,82.42
2023-01-13T14:13:17.923Z,82.50
2023-01-13T14:15:44.959Z,82.46
2023-01-13T14:18:15.164Z,82.35
2023-01-13T14:20:42.813Z,82.05
2023-01-13T14:23:22.863Z,81.71
2023-01-13T14:25:51.859Z,81.44
2023-01-13T14:28:35.454Z,81.60
2023-01-13T14:31:02.466Z,80.73
2023-01-13T14:33:38.849Z,80.78
2023-01-13T14:36:24.205Z,81.06
2023-01-13T14:39:11.675Z,81.07
2023-01-13T14:41:49.081Z,80.99
2023-01-13T14:44:27.745Z,81.32
2023-01-13T14:46:56.630Z,81.50
2023-01-13T14:49:41.471Z,81.39
2023-01-13T14:52:24.006Z,81.78
2023-01-13T14:55:05.567Z,81.51
2023-01-13T14:57:34.071Z,81.48
2023-01-13T15:00:16.004Z,81.09
2023-01-13T15:02:58.613Z,81.18
2023-01-13T15:05:27.866Z,81.09
2023-01-13T15:07:57.551Z,80.60
2023-01-13T15:10:27.546Z,80.62
2023-01-13T15:12:56.110Z,80.74
2023-01-13T15:15:28.084Z,81.13
2023-01-13T15:17:54.708Z,80.98
2023-01-13T15:20:23.560Z,81.32
2023-01-13T15:22:51.437Z,81.71
2023-01-13T15:25:18.585Z,81.90
2023-01-13T15:27:48.906Z,82.13
2023-01-13T15:30:22.058Z,82.34
2023-01-13T15:32:48.606Z,82.90
2023-01-13T15:35:16.919Z,82.87
2023-01-13T15:37:44.465Z,83.47
2023-01-13T15:40:21.873Z,83.48
2023-01-13T15:43:07.173Z,83.75
2023-01-13T15:45:54.386Z,83.55
2023-01-13T15:48:22.628Z,83.75
2023-01-13T15:50:49.286Z,83.13
2023-01-13T15:53:16.500Z,83.14
2023-01-13T15:55:46.641Z,82.94
2023-01-13T15:58:14.298Z,83.20
2023-01-13T16:00:41.969Z,82.75
2023-01-13T16:03:18.546Z,82.77
2023-01-13T16:05:45.390Z,82.73
2023-01-13T16:08:18.501Z,82.85
2023-01-13T16:10:45.633Z,82.84
2023-01-13T16:13:14.292Z,83.80
2023-01-13T16:15:43.969Z,84.80
2023-01-13T16:18:26.053Z,87.40
2023-01-13T16:20:55.141Z,88.71
2023-01-13T16:23:23.368Z,89.72
2023-01-13T16:25:50.410Z,90.39
2023-01-13T16:28:22.844Z,91.48
2023-01-13T16:30:51.263Z,91.09
2023-01-13T16:33:18.079Z,91.79
2023-01-13T16:36:10.586Z,91.90
2023-01-13T16:38:31.381Z,92.87
2023-01-13T16:40:59.130Z,93.05
2023-01-13T16:43:25.804Z,93.20
2023-01-13T16:45:53.349Z,92.91
2023-01-13T16:48:20.589Z,92.43
2023-01-13T16:50:47.582Z,92.17
2023-01-13T16:53:14.198Z,92.63
2023-01-13T16:55:41.947Z,92.94
2023-01-13T16:58:28.188Z,93.31
2023-01-13T17:00:54.909Z,93.28
2023-01-13T17:03:22.857Z,93.23
2023-01-13T17:05:49.346Z,93.10
2023-01-13T17:08:18.149Z,92.66
2023-01-13T17:10:47.909Z,92.34
2023-01-13T17:13:16.787Z,92.09
2023-01-13T17:15:46.075Z,91.89
2023-01-13T17:18:14.359Z,91.25
2023-01-13T17:20:42.721Z,91.30
2023-01-13T17:23:09.342Z,90.66
2023-01-13T17:28:16.956Z,89.05
2023-01-13T17:30:44.232Z,89.07
2023-01-13T17:35:51.078Z,88.25
2023-01-13T17:38:17.625Z,87.13
2023-01-13T17:40:44.085Z,87.31
2023-01-13T17:43:10.663Z,87.29
2023-01-13T17:45:40.834Z,88.41
2023-01-13T17:48:07.535Z,87.63
2023-01-13T17:50:34.975Z,87.73
2023-01-13T17:53:01.864Z,87.31
2023-01-13T17:55:36.126Z,86.19
2023-01-13T17:58:02.828Z,85.80
2023-01-13T18:00:29.890Z,85.52
2023-01-13T18:05:37.594Z,84.86
2023-01-13T18:08:04.975Z,84.46
2023-01-13T18:13:13.890Z,84.42
2023-01-13T18:18:20.747Z,83.21
2023-01-13T18:21:06.220Z,83.14
2023-01-13T18:23:51.939Z,82.34
2023-01-13T18:26:38.496Z,81.83
2023-01-13T18:29:05.995Z,82.15
2023-01-13T18:31:32.635Z,81.67
2023-01-13T18:33:59.169Z,80.99
2023-01-13T18:36:25.642Z,81.37
2023-01-13T18:38:52.305Z,81.33
2023-01-13T18:41:37.620Z,81.31
2023-01-13T18:44:05.559Z,81.01
2023-01-13T18:46:32.416Z,80.56
2023-01-13T18:48:59.207Z,80.39
2023-01-13T18:51:25.806Z,80.22
2023-01-13T18:53:53.904Z,80.39
2023-01-13T18:58:50.081Z,80.07
2023-01-13T19:01:17.875Z,79.51
2023-01-13T19:03:44.698Z,79.71
2023-01-13T19:06:13.961Z,79.87
2023-01-13T19:09:11.942Z,79.78
2023-01-13T19:11:39.559Z,80.17
2023-01-13T19:14:06.636Z,80.13
2023-01-13T19:16:33.345Z,79.66
2023-01-13T19:19:03.385Z,79.13
2023-01-13T19:21:30.641Z,79.48
2023-01-13T19:23:58.711Z,79.46
2023-01-13T19:26:32.669Z,79.28
2023-01-13T19:28:59.265Z,78.87
2023-01-13T19:31:25.925Z,79.64
2023-01-13T19:33:52.563Z,79.62
2023-01-13T19:36:19.008Z,79.59
2023-01-13T19:38:45.582Z,79.47
2023-01-13T19:41:32.134Z,79.33
2023-01-13T19:44:19.444Z,79.03
2023-01-13T19:46:46.338Z,79.44
2023-01-13T19:49:13.947Z,79.85
2023-01-13T19:51:40.451Z,79.75
2023-01-13T19:54:07.592Z,80.08
2023-01-13T19:56:34.107Z,79.85
2023-01-13T19:59:00.641Z,80.03
2023-01-13T20:01:32.203Z,79.69
2023-01-13T20:04:03.660Z,79.97
2023-01-13T20:06:31.834Z,79.47
2023-01-13T20:08:59.379Z,79.31
2023-01-13T20:11:31.432Z,79.19
2023-01-13T20:13:59.586Z,79.31
2023-01-13T20:16:27.584Z,79.41
2023-01-13T20:18:54.746Z,79.33
2023-01-13T20:21:21.295Z,79.42
2023-01-13T20:23:53.372Z,79.20
2023-01-13T20:26:21.194Z,79.41
2023-01-13T20:28:48.110Z,79.35
2023-01-13T20:31:15.678Z,79.20
2023-01-13T20:33:42.975Z,78.88
2023-01-13T20:36:25.239Z,79.08
2023-01-13T20:38:51.717Z,79.28
2023-01-13T20:41:36.699Z,79.03
2023-01-13T20:44:03.187Z,78.73
2023-01-13T20:46:29.760Z,79.13
2023-01-13T20:48:56.313Z,79.42
2023-01-13T20:51:23.280Z,79.75
2023-01-13T20:53:49.842Z,79.58
2023-01-13T20:56:17.868Z,79.84
2023-01-13T20:58:44.337Z,80.03
2023-01-13T21:01:12.305Z,80.32
2023-01-13T21:03:38.931Z,79.94
2023-01-13T21:06:05.789Z,79.78
2023-01-13T21:08:32.495Z,80.42
2023-01-13T21:11:00.692Z,80.30
2023-01-13T21:13:46.529Z,80.20
2023-01-13T21:16:13.279Z,80.33
2023-01-13T21:18:58.283Z,80.34
2023-01-13T21:21:24.766Z,80.53
2023-01-13T21:23:53.200Z,80.20
2023-01-13T21:26:22.116Z,80.58
2023-01-13T21:28:49.719Z,80.27
2023-01-13T21:31:17.233Z,80.38
2023-01-13T21:33:44.985Z,80.33
2023-01-13T21:36:13.172Z,80.71
2023-01-13T21:38:39.866Z,80.40
2023-01-13T21:41:08.880Z,80.26
2023-01-13T21:43:56.386Z,80.42
2023-01-13T21:46:44.255Z,80.60
2023-01-13T21:49:11.278Z,80.82
2023-01-13T21:51:37.832Z,80.92
2023-01-13T21:54:08.901Z,80.74
2023-01-13T21:56:35.519Z,80.49
2023-01-13T21:59:02.374Z,80.69
2023-01-13T22:01:29.562Z,80.65
2023-01-13T22:04:14.601Z,80.58
2023-01-13T22:06:42.391Z,80.31
2023-01-13T22:09:08.991Z,80.09
2023-01-13T22:11:39.990Z,80.46
2023-01-13T22:14:09.896Z,80.35
2023-01-13T22:16:40.828Z,80.41
2023-01-13T22:19:08.867Z,80.48
2023-01-13T22:21:35.539Z,80.46
2023-01-13T22:24:04.738Z,80.36
2023-01-13T22:26:34.284Z,80.72
2023-01-13T22:29:02.281Z,80.72
2023-01-13T22:31:28.776Z,80.41
2023-01-13T22:33:56.255Z,80.68
2023-01-13T22:36:26.552Z,80.65
2023-01-13T22:38:55.604Z,80.57
2023-01-13T22:41:22.603Z,80.80
2023-01-13T22:43:50.701Z,80.78
2023-01-13T22:46:19.251Z,80.75
2023-01-13T22:48:48.296Z,80.79
2023-01-13T22:51:16.653Z,80.72
2023-01-13T22:53:43.529Z,80.73
2023-01-13T22:56:17.364Z,80.69
2023-01-13T22:58:45.069Z,80.62
2023-01-13T23:01:15.085Z,80.57
2023-01-13T23:03:42.586Z,81.09
2023-01-13T23:06:09.211Z,80.64
2023-01-13T23:08:36.792Z,80.86
2023-01-13T23:11:12.177Z,80.80
2023-01-13T23:13:40.071Z,80.67
2023-01-13T23:16:07.733Z,80.83
2023-01-13T23:18:35.979Z,80.99
2023-01-13T23:21:07.655Z,81.18
2023-01-13T23:23:40.950Z,81.29
2023-01-13T23:26:08.300Z,81.26
2023-01-13T23:28:40.106Z,81.67
2023-01-13T23:31:15.496Z,81.53
2023-01-13T23:33:43.578Z,81.38
2023-01-13T23:36:19.330Z,81.64
2023-01-13T23:38:46.267Z,81.82
2023-01-13T23:41:16.184Z,81.75
2023-01-13T23:43:42.892Z,81.91
2023-01-13T23:46:23.771Z,81.93
2023-01-13T23:48:51.049Z,82.02
2023-01-13T23:51:20.814Z,82.09
2023-01-13T23:53:49.637Z,81.68
2023-01-13T23:56:19.245Z,81.57
2023-01-13T23:58:46.589Z,81.65
